createdAt,value
2022-08-26T00:01:56.859Z,101029.56
2022-08-26T00:04:26.124Z,101035.78
2022-08-26T00:06:57.052Z,101029.78
2022-08-26T00:09:25.522Z,101024.22
2022-08-26T00:11:54.089Z,101035.88
2022-08-26T00:14:24.203Z,101032.00
2022-08-26T00:16:55.682Z,101034.34
2022-08-26T00:19:23.225Z,101034.06
2022-08-26T00:21:50.571Z,101032.44
2022-08-26T00:24:19.807Z,101028.75
2022-08-26T00:26:47.291Z,101036.66
2022-08-26T00:29:18.343Z,101044.16
2022-08-26T00:31:45.790Z,101036.72
2022-08-26T00:34:13.927Z,101033.69
2022-08-26T00:36:41.033Z,101034.91
2022-08-26T00:39:08.625Z,101033.22
2022-08-26T00:41:41.020Z,101037.31
2022-08-26T00:44:11.223Z,101036.88
2022-08-26T00:46:46.897Z,101033.84
2022-08-26T00:49:20.511Z,101045.09
2022-08-26T00:51:57.091Z,101039.72
2022-08-26T00:54:27.837Z,101037.00
2022-08-26T00:56:59.871Z,101041.78
2022-08-26T00:59:32.920Z,101033.31
2022-08-26T01:02:02.926Z,101033.50
2022-08-26T01:04:34.335Z,101046.72
2022-08-26T01:07:02.087Z,101043.34
2022-08-26T01:09:29.863Z,101044.56
2022-08-26T01:11:59.698Z,101057.50
2022-08-26T01:14:33.313Z,101051.75
2022-08-26T01:17:05.084Z,101040.69
2022-08-26T01:19:42.695Z,101046.63
2022-08-26T01:22:28.253Z,101041.16
2022-08-26T01:24:59.131Z,101053.94
2022-08-26T01:27:32.690Z,101050.19
2022-08-26T01:30:01.550Z,101057.50
2022-08-26T01:32:31.429Z,101052.72
2022-08-26T01:34:59.896Z,101050.59
2022-08-26T01:37:33.817Z,101054.84
2022-08-26T01:40:01.130Z,101052.66
2022-08-26T01:42:29.496Z,101054.50
2022-08-26T01:45:06.549Z,101058.25
2022-08-26T01:47:37.226Z,101060.81
2022-08-26T01:50:18.089Z,101054.84
2022-08-26T01:52:57.635Z,101061.50
2022-08-26T01:55:33.215Z,101057.75
2022-08-26T01:58:05.686Z,101054.06
2022-08-26T02:00:34.747Z,101058.50
2022-08-26T02:03:18.720Z,101056.50
2022-08-26T02:05:59.255Z,101060.28
2022-08-26T02:08:53.012Z,101058.47
2022-08-26T02:11:20.091Z,101061.84
2022-08-26T02:13:53.145Z,101064.38
2022-08-26T02:16:25.171Z,101060.31
2022-08-26T02:18:54.283Z,101064.91
2022-08-26T02:21:21.979Z,101065.47
2022-08-26T02:23:52.548Z,101065.09
2022-08-26T02:26:27.005Z,101060.53
2022-08-26T02:29:06.295Z,101061.44
2022-08-26T02:31:34.589Z,101060.22
2022-08-26T02:34:15.543Z,101055.31
2022-08-26T02:36:43.125Z,101059.69
2022-08-26T02:39:10.403Z,101062.44
2022-08-26T02:41:45.229Z,101064.31
2022-08-26T02:44:13.357Z,101061.78
2022-08-26T02:46:40.782Z,101063.97
2022-08-26T02:49:09.000Z,101060.22
2022-08-26T02:51:35.866Z,101060.03
2022-08-26T02:54:02.887Z,101055.16
2022-08-26T02:56:34.483Z,101066.19
2022-08-26T02:59:02.481Z,101068.56
2022-08-26T03:01:34.230Z,101061.09
2022-08-26T03:04:05.103Z,101074.47
2022-08-26T03:06:32.771Z,101062.94
2022-08-26T03:08:59.851Z,101059.88
2022-08-26T03:11:32.245Z,101062.59
2022-08-26T03:14:01.775Z,101059.69
2022-08-26T03:16:37.042Z,101054.25
2022-08-26T03:19:06.623Z,101054.91
2022-08-26T03:21:36.959Z,101056.44
2022-08-26T03:24:05.291Z,101052.88
2022-08-26T03:26:32.200Z,101050.69
2022-08-26T03:29:17.503Z,101055.25
2022-08-26T03:31:44.455Z,101050.19
2022-08-26T03:34:14.351Z,101046.44
2022-08-26T03:36:42.234Z,101046.44
2022-08-26T03:39:11.387Z,101037.25
2022-08-26T03:41:39.342Z,101034.84
2022-08-26T03:44:09.098Z,101023.50
2022-08-26T03:46:36.704Z,101023.66
2022-08-26T03:49:06.070Z,101023.28
2022-08-26T03:51:34.868Z,101012.22
2022-08-26T03:54:08.356Z,101022.28
2022-08-26T03:56:35.411Z,101020.56
2022-08-26T03:59:02.554Z,101018.06
2022-08-26T04:01:31.005Z,101020.56
2022-08-26T04:04:00.584Z,101021.59
2022-08-26T04:06:58.547Z,101019.63
2022-08-26T04:09:27.673Z,101017.66
2022-08-26T04:11:55.557Z,101010.06
2022-08-26T04:14:27.179Z,101021.94
2022-08-26T04:16:56.852Z,101007.16
2022-08-26T04:19:25.599Z,101020.94
2022-08-26T04:21:54.119Z,101017.56
2022-08-26T04:24:24.851Z,101018.75
2022-08-26T04:26:52.508Z,101026.22
2022-08-26T04:29:24.230Z,101026.06
2022-08-26T04:31:55.459Z,101021.63
2022-08-26T04:34:28.693Z,101019.78
2022-08-26T04:36:58.267Z,101013.84
2022-08-26T04:39:27.658Z,101017.56
2022-08-26T04:41:55.405Z,101006.91
2022-08-26T04:44:26.124Z,101002.13
2022-08-26T04:46:53.950Z,101006.03
2022-08-26T04:49:23.287Z,101013.34
2022-08-26T04:51:53.148Z,101018.63
2022-08-26T04:54:19.952Z,101016.06
2022-08-26T04:56:49.681Z,101021.03
2022-08-26T04:59:18.212Z,101018.63
2022-08-26T05:01:49.255Z,101015.47
2022-08-26T05:04:18.936Z,101017.31
2022-08-26T05:06:50.237Z,101014.97
2022-08-26T05:09:18.770Z,101018.03
2022-08-26T05:11:48.322Z,101020.41
2022-08-26T05:14:18.770Z,101020.25
2022-08-26T05:16:45.596Z,101024.84
2022-08-26T05:19:18.919Z,101024.84
2022-08-26T05:21:48.535Z,101017.69
2022-08-26T05:24:16.769Z,101019.91
2022-08-26T05:26:44.607Z,101025.19
2022-08-26T05:29:12.343Z,101020.78
2022-08-26T05:31:39.579Z,101016.84
2022-08-26T05:34:08.562Z,101018.06
2022-08-26T05:36:37.134Z,101023.13
2022-08-26T05:39:06.722Z,101016.31
2022-08-26T05:41:38.452Z,101022.44
2022-08-26T05:44:10.230Z,101021.06
2022-08-26T05:46:40.226Z,101021.56
2022-08-26T05:49:12.218Z,101017.47
2022-08-26T05:51:47.583Z,101018.44
2022-08-26T05:54:21.344Z,101023.56
2022-08-26T05:56:53.136Z,101027.78
2022-08-26T05:59:23.981Z,101029.59
2022-08-26T06:01:53.056Z,101035.53
2022-08-26T06:04:20.228Z,101029.88
2022-08-26T06:06:47.391Z,101033.47
2022-08-26T06:09:14.696Z,101035.81
2022-08-26T06:11:45.482Z,101030.38
2022-08-26T06:14:12.371Z,101034.16
2022-08-26T06:16:43.892Z,101038.38
2022-08-26T06:19:15.819Z,101031.72
2022-08-26T06:21:47.895Z,101030.34
2022-08-26T06:24:39.928Z,101037.78
2022-08-26T06:27:11.473Z,101040.75
2022-08-26T06:29:40.056Z,101040.19
2022-08-26T06:32:07.103Z,101034.50
2022-08-26T06:34:35.906Z,101033.88
2022-08-26T06:37:03.724Z,101036.84
2022-08-26T06:39:31.968Z,101037.41
2022-08-26T06:42:00.634Z,101037.63
2022-08-26T06:44:28.072Z,101038.69
2022-08-26T06:46:55.098Z,101043.69
2022-08-26T06:49:25.642Z,101036.53
2022-08-26T06:51:58.751Z,101035.13
2022-08-26T06:54:27.839Z,101027.31
2022-08-26T06:56:57.057Z,101036.88
2022-08-26T06:59:25.395Z,101035.56
2022-08-26T07:01:52.412Z,101042.06
2022-08-26T07:04:22.411Z,101032.28
2022-08-26T07:06:52.897Z,101039.31
2022-08-26T07:09:27.071Z,101042.69
2022-08-26T07:11:56.672Z,101036.47
2022-08-26T07:14:26.186Z,101049.28
2022-08-26T07:16:54.612Z,101043.16
2022-08-26T07:19:31.015Z,101040.56
2022-08-26T07:22:05.684Z,101044.50
2022-08-26T07:24:35.735Z,101050.44
2022-08-26T07:27:08.710Z,101040.50
2022-08-26T07:29:37.463Z,101041.16
2022-08-26T07:32:05.679Z,101051.84
2022-08-26T07:34:33.999Z,101042.88
2022-08-26T07:37:01.441Z,101045.53
2022-08-26T07:39:31.500Z,101046.44
2022-08-26T07:42:01.509Z,101049.44
2022-08-26T07:44:35.744Z,101041.91
2022-08-26T07:47:02.766Z,101035.97
2022-08-26T07:49:38.271Z,101045.28
2022-08-26T07:52:06.568Z,101041.09
2022-08-26T07:54:33.638Z,101040.66
2022-08-26T07:57:00.986Z,101047.84
2022-08-26T07:59:32.152Z,101046.56
2022-08-26T08:01:59.971Z,101047.41
2022-08-26T08:04:28.888Z,101045.31
2022-08-26T08:06:56.105Z,101052.06
2022-08-26T08:09:24.730Z,101050.41
2022-08-26T08:11:53.101Z,101052.56
2022-08-26T08:14:22.298Z,101046.47
2022-08-26T08:16:51.159Z,101050.44
2022-08-26T08:19:23.841Z,101046.66
2022-08-26T08:21:51.873Z,101048.75
2022-08-26T08:24:19.292Z,101051.50
2022-08-26T08:26:46.328Z,101046.63
2022-08-26T08:29:14.148Z,101052.91
2022-08-26T08:31:58.387Z,101052.63
2022-08-26T08:34:28.619Z,101049.22
2022-08-26T08:36:57.537Z,101047.53
2022-08-26T08:39:25.323Z,101040.94
2022-08-26T08:42:14.193Z,101045.94
2022-08-26T08:44:51.767Z,101039.84
2022-08-26T08:47:32.058Z,101041.00
2022-08-26T08:50:10.660Z,101038.88
2022-08-26T08:52:41.516Z,101032.63
2022-08-26T08:55:11.888Z,101041.38
2022-08-26T08:58:14.582Z,101036.41
2022-08-26T09:00:56.758Z,101037.03
2022-08-26T09:03:46.901Z,101033.34
2022-08-26T09:06:18.950Z,101026.94
2022-08-26T09:08:50.067Z,101028.91
2022-08-26T09:11:20.612Z,101025.94
2022-08-26T09:13:57.901Z,101021.81
2022-08-26T09:16:50.084Z,101023.97
2022-08-26T09:19:37.900Z,101017.97
2022-08-26T09:22:09.369Z,101015.38
2022-08-26T09:24:41.876Z,101027.59
2022-08-26T09:27:40.779Z,101018.47
2022-08-26T09:30:24.095Z,101026.66
2022-08-26T09:33:28.270Z,101023.97
2022-08-26T09:36:36.462Z,101023.91
2022-08-26T09:39:31.281Z,101016.81
2022-08-26T09:42:14.282Z,101020.72
2022-08-26T09:45:08.497Z,101017.97
2022-08-26T09:48:02.197Z,101008.47
2022-08-26T09:50:58.403Z,101014.28
2022-08-26T09:53:34.630Z,101007.72
2022-08-26T09:56:16.326Z,101011.38
2022-08-26T09:58:47.423Z,101009.22
2022-08-26T10:01:23.419Z,101001.72
2022-08-26T10:03:51.637Z,101001.47
2022-08-26T10:06:21.161Z,100998.63
2022-08-26T10:09:11.079Z,100991.69
2022-08-26T10:11:48.891Z,100991.13
2022-08-26T10:14:34.804Z,100998.59
2022-08-26T10:17:30.733Z,100990.56
2022-08-26T10:20:09.847Z,100988.31
2022-08-26T10:22:59.034Z,100990.34
2022-08-26T10:26:09.672Z,100987.34
2022-08-26T10:28:49.130Z,100985.00
2022-08-26T10:31:29.280Z,100990.06
2022-08-26T10:33:58.899Z,100987.59
2022-08-26T10:37:15.206Z,100989.44
2022-08-26T10:39:46.071Z,100988.38
2022-08-26T10:42:33.381Z,100983.84
2022-08-26T10:45:11.793Z,100981.19
2022-08-26T10:47:54.896Z,100975.09
2022-08-26T10:50:30.419Z,100983.00
2022-08-26T10:53:42.639Z,100971.84
2022-08-26T10:56:49.435Z,100964.88
2022-08-26T10:59:39.332Z,100962.56
2022-08-26T11:02:47.201Z,100965.47
2022-08-26T11:05:23.715Z,100963.28
2022-08-26T11:07:54.975Z,100961.50
2022-08-26T11:10:21.733Z,100956.34
2022-08-26T11:12:56.270Z,100955.63
2022-08-26T11:15:28.244Z,100954.41
2022-08-26T11:18:05.353Z,100970.38
2022-08-26T11:20:45.985Z,100950.41
2022-08-26T11:23:14.473Z,100960.25
2022-08-26T11:25:57.157Z,100958.41
2022-08-26T11:28:48.200Z,100963.06
2022-08-26T11:31:27.465Z,100952.34
2022-08-26T11:34:03.694Z,100947.84
2022-08-26T11:36:45.731Z,100957.41
2022-08-26T11:39:54.429Z,100953.22
2022-08-26T11:42:44.530Z,100949.84
2022-08-26T11:45:18.175Z,100945.34
2022-08-26T11:47:46.674Z,100949.03
2022-08-26T11:50:28.479Z,100956.81
2022-08-26T11:53:02.443Z,100951.13
2022-08-26T11:55:33.114Z,100942.69
2022-08-26T11:58:02.516Z,100945.16
2022-08-26T12:00:49.768Z,100940.56
2022-08-26T12:03:23.058Z,100945.25
2022-08-26T12:05:52.468Z,100942.06
2022-08-26T12:08:28.120Z,100948.38
2022-08-26T12:11:13.879Z,100939.31
2022-08-26T12:13:41.993Z,100940.75
2022-08-26T12:16:09.930Z,100939.81
2022-08-26T12:18:39.144Z,100948.63
2022-08-26T12:21:24.903Z,100942.84
2022-08-26T12:23:55.476Z,100943.75
2022-08-26T12:26:29.686Z,100955.16
2022-08-26T12:29:20.234Z,100944.25
2022-08-26T12:32:10.135Z,100944.09
2022-08-26T12:34:37.346Z,100950.28
2022-08-26T12:37:04.630Z,100940.88
2022-08-26T12:39:37.726Z,100937.59
2022-08-26T12:42:12.899Z,100948.16
2022-08-26T12:44:54.110Z,100946.28
2022-08-26T12:47:41.858Z,100940.31
2022-08-26T12:50:31.054Z,100949.25
2022-08-26T12:53:03.049Z,100944.94
2022-08-26T12:55:52.340Z,100932.53
2022-08-26T12:58:27.307Z,100937.03
2022-08-26T13:01:04.215Z,100934.34
2022-08-26T13:03:33.954Z,100939.53
2022-08-26T13:06:31.828Z,100938.19
2022-08-26T13:09:04.509Z,100931.81
2022-08-26T13:11:35.964Z,100931.41
2022-08-26T13:14:21.224Z,100933.09
2022-08-26T13:16:53.119Z,100930.00
2022-08-26T13:19:25.784Z,100937.72
2022-08-26T13:22:00.985Z,100927.88
2022-08-26T13:24:56.327Z,100926.84
2022-08-26T13:27:26.487Z,100931.22
2022-08-26T13:29:54.598Z,100930.00
2022-08-26T13:32:22.653Z,100927.22
2022-08-26T13:34:56.673Z,100932.06
2022-08-26T13:37:29.295Z,100925.09
2022-08-26T13:40:05.684Z,100924.53
2022-08-26T13:42:32.751Z,100919.22
2022-08-26T13:45:01.322Z,100913.94
2022-08-26T13:47:28.792Z,100915.63
2022-08-26T13:49:56.496Z,100920.34
2022-08-26T13:52:30.056Z,100918.72
2022-08-26T13:55:00.337Z,100912.63
2022-08-26T13:57:30.200Z,100906.88
2022-08-26T13:59:59.500Z,100902.31
2022-08-26T14:02:28.013Z,100908.41
2022-08-26T14:04:55.529Z,100899.47
2022-08-26T14:07:23.112Z,100895.03
2022-08-26T14:09:50.488Z,100891.53
2022-08-26T14:12:18.100Z,100897.47
2022-08-26T14:14:45.183Z,100905.13
2022-08-26T14:17:18.574Z,100896.56
2022-08-26T14:19:47.355Z,100899.00
2022-08-26T14:22:17.490Z,100885.75
2022-08-26T14:24:45.135Z,100885.75
2022-08-26T14:27:13.389Z,100883.88
2022-08-26T14:29:40.755Z,100884.47
2022-08-26T14:32:25.647Z,100884.56
2022-08-26T14:34:53.119Z,100881.56
2022-08-26T14:37:20.736Z,100883.06
2022-08-26T14:39:48.098Z,100878.59
2022-08-26T14:42:23.954Z,100877.38
2022-08-26T14:44:56.867Z,100874.84
2022-08-26T14:47:23.799Z,100878.84
2022-08-26T14:49:51.376Z,100871.84
2022-08-26T14:52:18.524Z,100869.63
2022-08-26T14:54:45.498Z,100870.69
2022-08-26T14:57:14.839Z,100860.44
2022-08-26T14:59:49.612Z,100862.88
2022-08-26T15:02:25.260Z,100864.97
2022-08-26T15:04:59.960Z,100860.81
2022-08-26T15:07:27.086Z,100853.81
2022-08-26T15:09:53.912Z,100855.56
2022-08-26T15:12:21.559Z,100848.88
2022-08-26T15:14:48.483Z,100853.16
2022-08-26T15:17:15.291Z,100849.59
2022-08-26T15:19:42.220Z,100852.50
2022-08-26T15:22:09.181Z,100855.59
2022-08-26T15:24:36.674Z,100851.53
2022-08-26T15:27:04.244Z,100843.72
2022-08-26T15:29:31.248Z,100837.84
2022-08-26T15:32:02.257Z,100834.75
2022-08-26T15:34:29.075Z,100847.38
2022-08-26T15:36:56.180Z,100847.03
2022-08-26T15:39:23.020Z,100843.22
2022-08-26T15:41:50.493Z,100838.44
2022-08-26T15:44:18.552Z,100840.44
2022-08-26T15:46:47.777Z,100838.91
2022-08-26T15:49:17.784Z,100837.28
2022-08-26T15:51:48.011Z,100842.31
2022-08-26T15:54:17.211Z,100837.78
2022-08-26T15:56:44.412Z,100833.72
2022-08-26T15:59:12.146Z,100843.63
2022-08-26T16:01:39.830Z,100822.97
2022-08-26T16:04:07.729Z,100826.44
2022-08-26T16:06:38.588Z,100828.41
2022-08-26T16:09:07.363Z,100826.47
2022-08-26T16:11:38.904Z,100826.94
2022-08-26T16:14:07.325Z,100828.63
2022-08-26T16:16:39.544Z,100821.06
2022-08-26T16:19:08.073Z,100828.38
2022-08-26T16:21:35.901Z,100820.00
2022-08-26T16:24:03.669Z,100824.91
2022-08-26T16:26:34.154Z,100822.63
2022-08-26T16:29:03.827Z,100819.78
2022-08-26T16:31:30.929Z,100822.31
2022-08-26T16:33:57.946Z,100822.63
2022-08-26T16:36:24.743Z,100825.31
2022-08-26T16:38:55.413Z,100814.56
2022-08-26T16:41:28.718Z,100820.81
2022-08-26T16:43:56.055Z,100822.44
2022-08-26T16:46:26.003Z,100817.31
2022-08-26T16:48:54.875Z,100821.38
2022-08-26T16:51:24.333Z,100813.25
2022-08-26T16:53:51.845Z,100811.66
2022-08-26T16:56:23.115Z,100820.66
2022-08-26T16:59:00.740Z,100817.31
2022-08-26T17:01:28.813Z,100813.28
2022-08-26T17:03:55.723Z,100815.16
2022-08-26T17:06:22.610Z,100822.78
2022-08-26T17:08:49.847Z,100821.88
2022-08-26T17:11:16.771Z,100814.09
2022-08-26T17:13:43.637Z,100817.03
2022-08-26T17:16:12.356Z,100816.44
2022-08-26T17:18:39.371Z,100820.22
2022-08-26T17:21:10.157Z,100819.91
2022-08-26T17:23:38.558Z,100815.72
2022-08-26T17:26:05.838Z,100817.28
2022-08-26T17:28:33.275Z,100817.00
2022-08-26T17:31:01.422Z,100813.66
2022-08-26T17:33:29.959Z,100814.50
2022-08-26T17:35:57.066Z,100820.19
2022-08-26T17:38:24.883Z,100804.97
2022-08-26T17:40:52.148Z,100812.34
2022-08-26T17:43:19.223Z,100806.22
2022-08-26T17:45:46.814Z,100808.66
2022-08-26T17:48:14.123Z,100806.97
2022-08-26T17:50:42.785Z,100803.84
2022-08-26T17:53:12.785Z,100807.13
2022-08-26T17:55:48.048Z,100805.44
2022-08-26T17:58:18.052Z,100808.09
2022-08-26T18:00:50.838Z,100807.75
2022-08-26T18:03:19.290Z,100809.94
2022-08-26T18:05:51.486Z,100809.59
2022-08-26T18:08:19.723Z,100817.31
2022-08-26T18:10:47.210Z,100811.72
2022-08-26T18:13:15.059Z,100820.00
2022-08-26T18:15:46.048Z,100813.03
2022-08-26T18:18:14.751Z,100817.13
2022-08-26T18:20:43.721Z,100812.94
2022-08-26T18:23:11.932Z,100810.31
2022-08-26T18:25:43.860Z,100809.03
2022-08-26T18:28:11.020Z,100802.78
2022-08-26T18:30:38.212Z,100806.88
2022-08-26T18:33:05.111Z,100813.16
2022-08-26T18:35:31.963Z,100816.66
2022-08-26T18:38:01.413Z,100812.94
2022-08-26T18:40:41.054Z,100816.69
2022-08-26T18:43:08.494Z,100813.22
2022-08-26T18:45:35.386Z,100816.47
2022-08-26T18:48:04.164Z,100814.22
2022-08-26T18:50:31.244Z,100809.16
2022-08-26T18:52:58.360Z,100822.59
2022-08-26T18:55:25.547Z,100828.63
2022-08-26T18:57:52.514Z,100817.00
2022-08-26T19:00:19.458Z,100823.00
2022-08-26T19:02:47.066Z,100825.63
2022-08-26T19:05:19.449Z,100822.28
2022-08-26T19:07:47.988Z,100817.25
2022-08-26T19:10:15.289Z,100822.41
2022-08-26T19:12:42.686Z,100820.72
2022-08-26T19:15:11.432Z,100826.72
2022-08-26T19:17:38.583Z,100830.81
2022-08-26T19:20:06.576Z,100828.47
2022-08-26T19:22:33.676Z,100832.81
2022-08-26T19:25:01.440Z,100830.78
2022-08-26T19:27:28.558Z,100829.81
2022-08-26T19:29:56.547Z,100834.50
2022-08-26T19:32:24.438Z,100833.53
2022-08-26T19:34:54.763Z,100840.34
2022-08-26T19:37:21.757Z,100840.59
2022-08-26T19:39:48.892Z,100845.88
2022-08-26T19:42:16.632Z,100844.69
2022-08-26T19:45:02.551Z,100851.50
2022-08-26T19:47:29.754Z,100853.91
2022-08-26T19:49:57.407Z,100859.28
2022-08-26T19:52:29.834Z,100851.97
2022-08-26T19:54:58.710Z,100853.03
2022-08-26T19:57:25.741Z,100853.53
2022-08-26T19:59:52.585Z,100861.66
2022-08-26T20:02:19.506Z,100867.63
2022-08-26T20:04:46.422Z,100862.59
2022-08-26T20:07:18.057Z,100861.50
2022-08-26T20:09:47.339Z,100859.72
2022-08-26T20:12:15.630Z,100863.19
2022-08-26T20:14:43.661Z,100865.78
2022-08-26T20:17:10.971Z,100869.59
2022-08-26T20:19:56.880Z,100874.75
2022-08-26T20:22:23.838Z,100878.41
2022-08-26T20:24:52.302Z,100884.03
2022-08-26T20:27:19.150Z,100885.53
2022-08-26T20:29:46.008Z,100882.66
2022-08-26T20:32:12.874Z,100881.19
2022-08-26T20:34:40.117Z,100885.50
2022-08-26T20:37:08.618Z,100888.34
2022-08-26T20:39:36.046Z,100888.34
2022-08-26T20:42:03.443Z,100880.75
2022-08-26T20:44:30.324Z,100877.78
2022-08-26T20:46:59.208Z,100898.38
2022-08-26T20:49:28.328Z,100893.09
2022-08-26T20:51:55.514Z,100895.00
2022-08-26T20:54:28.261Z,100892.47
2022-08-26T20:56:57.835Z,100901.13
2022-08-26T20:59:25.723Z,100901.66
2022-08-26T21:01:52.695Z,100908.00
2022-08-26T21:04:24.318Z,100906.31
2022-08-26T21:06:52.680Z,100909.06
2022-08-26T21:09:22.593Z,100912.41
2022-08-26T21:11:50.263Z,100909.28
2022-08-26T21:14:19.122Z,100927.09
2022-08-26T21:16:46.735Z,100923.53
2022-08-26T21:19:18.121Z,100917.41
2022-08-26T21:21:47.643Z,100920.53
2022-08-26T21:24:15.154Z,100929.69
2022-08-26T21:26:42.125Z,100940.56
2022-08-26T21:29:10.072Z,100931.69
2022-08-26T21:31:42.174Z,100946.81
2022-08-26T21:34:12.752Z,100938.09
2022-08-26T21:36:39.562Z,100943.81
2022-08-26T21:39:11.278Z,100936.09
2022-08-26T21:41:40.323Z,100936.16
2022-08-26T21:44:07.861Z,100937.50
2022-08-26T21:46:37.406Z,100943.03
2022-08-26T21:49:08.247Z,100950.56
2022-08-26T21:51:42.973Z,100944.28
2022-08-26T21:54:11.596Z,100953.41
2022-08-26T21:56:44.750Z,100950.47
2022-08-26T21:59:13.021Z,100948.22
2022-08-26T22:01:40.007Z,100954.81
2022-08-26T22:04:09.309Z,100954.16
2022-08-26T22:06:44.778Z,100953.34
2022-08-26T22:09:14.492Z,100944.88
2022-08-26T22:11:42.272Z,100951.03
2022-08-26T22:14:10.396Z,100964.59
2022-08-26T22:16:37.787Z,100957.41
2022-08-26T22:19:04.656Z,100960.22
2022-08-26T22:21:32.364Z,100968.25
2022-08-26T22:23:59.295Z,100960.00
2022-08-26T22:26:30.779Z,100962.59
2022-08-26T22:28:59.759Z,100961.72
2022-08-26T22:31:37.701Z,100963.00
2022-08-26T22:34:12.646Z,100976.09
2022-08-26T22:36:44.186Z,100967.03
2022-08-26T22:39:14.002Z,100969.38
2022-08-26T22:41:43.177Z,100969.38
2022-08-26T22:44:12.005Z,100965.16
2022-08-26T22:46:40.893Z,100969.16
2022-08-26T22:49:10.995Z,100963.06
2022-08-26T22:51:38.070Z,100974.91
2022-08-26T22:54:06.094Z,100973.84
2022-08-26T22:56:32.956Z,100973.03
2022-08-26T22:58:59.988Z,100966.91
2022-08-26T23:01:27.047Z,100973.47
2022-08-26T23:03:54.013Z,100970.09
2022-08-26T23:06:21.333Z,100970.47
2022-08-26T23:08:48.315Z,100976.59
2022-08-26T23:11:15.155Z,100975.78
2022-08-26T23:13:42.691Z,100978.50
2022-08-26T23:16:13.161Z,100978.91
2022-08-26T23:18:41.743Z,100984.41
2022-08-26T23:21:09.476Z,100984.84
2022-08-26T23:23:38.140Z,100988.00
2022-08-26T23:26:07.927Z,100980.00
2022-08-26T23:28:37.594Z,100979.59
2022-08-26T23:31:05.727Z,100979.34
2022-08-26T23:33:51.072Z,100977.03
2022-08-26T23:36:22.572Z,100983.38
2022-08-26T23:38:52.800Z,100991.19
2022-08-26T23:41:22.567Z,100996.03
2022-08-26T23:43:50.282Z,100993.28
2022-08-26T23:46:18.168Z,100992.66
2022-08-26T23:48:45.022Z,100990.56
2022-08-26T23:51:30.683Z,100993.69
2022-08-26T23:53:58.094Z,100990.09
2022-08-26T23:56:26.667Z,100984.63
2022-08-26T23:58:55.299Z,100984.84
